createdAt,value
2019-04-16T00:01:45.509Z,3.50
2019-04-16T00:03:53.636Z,3.57
2019-04-16T00:05:58.937Z,3.47
2019-04-16T00:08:19.578Z,3.73
2019-04-16T00:10:13.692Z,3.43
2019-04-16T00:12:24.763Z,3.47
2019-04-16T00:14:32.409Z,3.90
2019-04-16T00:16:35.794Z,3.90
2019-04-16T00:18:39.083Z,3.57
2019-04-16T00:20:59.414Z,3.50
2019-04-16T00:23:04.434Z,3.20
2019-04-16T00:25:07.724Z,3.67
2019-04-16T00:27:11.082Z,3.70
2019-04-16T00:29:14.406Z,3.67
2019-04-16T00:31:18.269Z,3.20
2019-04-16T00:33:21.564Z,3.80
2019-04-16T00:35:24.949Z,3.50
2019-04-16T00:37:28.297Z,3.50
2019-04-16T00:39:31.649Z,3.47
2019-04-16T00:41:34.948Z,3.80
2019-04-16T00:43:38.237Z,4.13
2019-04-16T00:45:41.749Z,3.57
2019-04-16T00:47:45.108Z,3.17
2019-04-16T00:49:50.099Z,3.50
2019-04-16T00:51:53.985Z,3.80
2019-04-16T00:53:57.326Z,3.50
2019-04-16T00:56:00.603Z,3.80
2019-04-16T00:58:03.993Z,3.93
2019-04-16T01:00:07.505Z,4.57
2019-04-16T01:02:10.800Z,3.97
2019-04-16T01:04:14.122Z,4.30
2019-04-16T01:06:17.470Z,4.30
2019-04-16T01:08:20.750Z,4.63
2019-04-16T01:10:24.058Z,3.97
2019-04-16T01:12:27.343Z,3.67
2019-04-16T01:14:30.706Z,4.13
2019-04-16T01:16:34.015Z,3.47
2019-04-16T01:18:38.700Z,4.00
2019-04-16T01:20:43.282Z,4.33
2019-04-16T01:22:47.536Z,4.10
2019-04-16T01:24:52.514Z,3.70
2019-04-16T01:27:16.044Z,3.57
2019-04-16T01:29:19.389Z,2.93
2019-04-16T01:31:42.694Z,3.10
2019-04-16T01:33:59.735Z,3.70
2019-04-16T01:36:10.661Z,3.53
2019-04-16T01:38:18.388Z,3.50
2019-04-16T01:40:23.300Z,2.87
2019-04-16T01:42:26.633Z,3.43
2019-04-16T01:44:29.986Z,3.50
2019-04-16T01:46:33.614Z,3.20
2019-04-16T01:48:38.931Z,3.43
2019-04-16T01:50:43.763Z,3.30
2019-04-16T01:52:49.434Z,3.00
2019-04-16T01:54:54.776Z,3.70
2019-04-16T01:56:59.446Z,3.07
2019-04-16T01:59:04.528Z,3.40
2019-04-16T02:01:08.053Z,3.43
2019-04-16T02:03:17.576Z,3.50
2019-04-16T02:05:20.348Z,3.87
2019-04-16T02:07:27.755Z,3.23
2019-04-16T02:09:34.121Z,3.03
2019-04-16T02:11:33.911Z,3.53
2019-04-16T02:13:37.379Z,3.30
2019-04-16T02:15:40.673Z,3.80
2019-04-16T02:17:44.315Z,3.43
2019-04-16T02:19:47.822Z,3.60
2019-04-16T02:21:51.159Z,4.00
2019-04-16T02:23:54.523Z,3.63
2019-04-16T02:25:57.836Z,3.30
2019-04-16T02:28:01.129Z,3.67
2019-04-16T02:30:05.842Z,3.30
2019-04-16T02:32:09.375Z,3.20
2019-04-16T02:34:12.973Z,3.30
2019-04-16T02:36:16.396Z,3.30
2019-04-16T02:38:19.971Z,3.37
2019-04-16T02:40:23.444Z,3.27
2019-04-16T02:42:30.826Z,3.47
2019-04-16T02:44:31.811Z,3.00
2019-04-16T02:46:35.132Z,3.20
2019-04-16T02:48:38.481Z,3.63
2019-04-16T02:51:19.510Z,3.37
2019-04-16T02:53:42.261Z,3.47
2019-04-16T02:55:52.697Z,3.13
2019-04-16T02:58:01.817Z,3.40
2019-04-16T03:02:36.670Z,3.73
2019-04-16T03:04:47.669Z,3.20
2019-04-16T03:06:51.044Z,3.17
2019-04-16T03:08:54.419Z,3.53
2019-04-16T03:10:57.770Z,3.30
2019-04-16T03:13:01.082Z,3.50
2019-04-16T03:15:06.366Z,3.50
2019-04-16T03:17:29.686Z,3.43
2019-04-16T03:19:34.635Z,3.10
2019-04-16T03:21:37.923Z,4.17
2019-04-16T03:23:41.208Z,4.03
2019-04-16T03:25:45.121Z,3.60
2019-04-16T03:27:51.526Z,3.63
2019-04-16T03:29:53.591Z,3.93
2019-04-16T03:31:59.308Z,3.37
2019-04-16T03:34:02.005Z,3.37
2019-04-16T03:36:05.405Z,3.27
2019-04-16T03:38:08.782Z,3.60
2019-04-16T03:40:17.875Z,3.73
2019-04-16T03:42:17.436Z,3.67
2019-04-16T03:44:20.753Z,3.47
2019-04-16T03:46:24.127Z,3.43
2019-04-16T03:48:27.500Z,3.70
2019-04-16T03:50:32.035Z,3.30
2019-04-16T03:52:37.500Z,3.70
2019-04-16T03:54:40.706Z,3.57
2019-04-16T03:56:44.008Z,4.37
2019-04-16T03:58:47.458Z,3.73
2019-04-16T04:00:50.807Z,3.87
2019-04-16T04:02:55.552Z,3.40
2019-04-16T04:05:01.698Z,3.57
2019-04-16T04:07:03.955Z,3.97
2019-04-16T04:09:07.419Z,3.63
2019-04-16T04:11:11.168Z,4.00
2019-04-16T04:13:17.727Z,3.93
2019-04-16T04:15:19.586Z,3.80
2019-04-16T04:17:23.453Z,6.40
2019-04-16T04:19:26.746Z,5.43
2019-04-16T04:21:30.118Z,6.20
2019-04-16T04:23:33.513Z,4.90
2019-04-16T04:25:37.078Z,4.83
2019-04-16T04:27:40.528Z,4.63
2019-04-16T04:29:46.244Z,4.30
2019-04-16T04:31:48.840Z,3.60
2019-04-16T04:33:52.140Z,4.00
2019-04-16T04:35:55.420Z,4.03
2019-04-16T04:38:00.831Z,4.07
2019-04-16T04:40:05.832Z,4.00
2019-04-16T04:42:09.111Z,3.83
2019-04-16T04:44:12.475Z,4.40
2019-04-16T04:46:16.221Z,3.43
2019-04-16T04:48:22.969Z,3.87
2019-04-16T04:50:24.562Z,3.67
2019-04-16T04:52:27.954Z,3.93
2019-04-16T04:54:31.300Z,4.47
2019-04-16T04:56:34.601Z,3.90
2019-04-16T04:58:37.996Z,3.83
2019-04-16T05:00:41.290Z,4.83
2019-04-16T05:02:44.645Z,4.23
2019-04-16T05:04:52.418Z,3.93
2019-04-16T05:06:57.279Z,4.40
2019-04-16T05:09:01.535Z,4.53
2019-04-16T05:11:04.931Z,3.77
2019-04-16T05:13:08.274Z,4.40
2019-04-16T05:15:11.591Z,4.23
2019-04-16T05:17:14.966Z,3.77
2019-04-16T05:19:18.260Z,4.23
2019-04-16T05:21:21.596Z,4.40
2019-04-16T05:23:26.100Z,3.87
2019-04-16T05:25:33.052Z,4.23
2019-04-16T05:27:34.592Z,4.30
2019-04-16T05:29:39.637Z,3.47
2019-04-16T05:31:42.931Z,4.17
2019-04-16T05:33:46.304Z,4.00
2019-04-16T05:35:49.664Z,4.00
2019-04-16T05:37:53.028Z,4.47
2019-04-16T05:39:58.605Z,3.90
2019-04-16T05:42:01.345Z,4.07
2019-04-16T05:44:04.815Z,4.53
2019-04-16T05:46:09.968Z,5.97
2019-04-16T05:48:13.359Z,4.33
2019-04-16T05:50:16.681Z,4.13
2019-04-16T05:52:20.027Z,4.30
2019-04-16T05:54:24.950Z,4.77
2019-04-16T05:56:41.745Z,4.97
2019-04-16T05:58:45.326Z,4.40
2019-04-16T06:00:50.277Z,3.73
2019-04-16T06:02:53.676Z,4.33
2019-04-16T06:04:57.035Z,4.23
2019-04-16T06:07:04.815Z,4.67
2019-04-16T06:09:11.907Z,4.37
2019-04-16T06:11:26.659Z,4.77
2019-04-16T06:13:28.640Z,4.67
2019-04-16T06:15:42.545Z,5.77
2019-04-16T06:17:50.211Z,4.63
2019-04-16T06:19:55.285Z,4.20
2019-04-16T06:22:03.235Z,4.03
2019-04-16T06:24:24.491Z,4.27
2019-04-16T06:26:29.414Z,4.27
2019-04-16T06:28:34.407Z,4.77
2019-04-16T06:30:54.594Z,4.33
2019-04-16T06:33:05.788Z,5.40
2019-04-16T06:35:27.081Z,4.53
2019-04-16T06:37:48.549Z,5.13
2019-04-16T06:40:00.691Z,4.73
2019-04-16T06:42:21.147Z,4.80
2019-04-16T06:44:23.297Z,5.23
2019-04-16T06:46:30.869Z,4.90
2019-04-16T06:48:35.791Z,5.03
2019-04-16T06:50:48.644Z,5.60
2019-04-16T06:53:08.923Z,4.37
2019-04-16T06:55:22.961Z,5.13
2019-04-16T06:57:27.907Z,5.27
2019-04-16T06:59:32.897Z,5.63
2019-04-16T07:01:41.679Z,5.00
2019-04-16T07:03:50.778Z,4.40
2019-04-16T07:06:07.860Z,4.60
2019-04-16T07:08:37.397Z,5.30
2019-04-16T07:10:52.875Z,5.80
2019-04-16T07:12:56.184Z,4.97
2019-04-16T07:15:00.166Z,4.97
2019-04-16T07:17:03.761Z,4.60
2019-04-16T07:19:10.309Z,5.00
2019-04-16T07:21:14.475Z,4.93
2019-04-16T07:23:17.181Z,5.47
2019-04-16T07:25:20.805Z,4.90
2019-04-16T07:27:24.653Z,5.80
2019-04-16T07:29:35.741Z,4.63
2019-04-16T07:31:43.489Z,4.70
2019-04-16T07:34:04.732Z,5.53
2019-04-16T07:36:09.872Z,4.97
2019-04-16T07:38:14.799Z,6.17
2019-04-16T07:40:35.944Z,6.30
2019-04-16T07:42:58.873Z,5.97
2019-04-16T07:45:11.497Z,5.17
2019-04-16T07:47:24.184Z,5.40
2019-04-16T07:49:35.139Z,5.57
2019-04-16T07:51:56.766Z,5.87
2019-04-16T07:54:26.937Z,5.03
2019-04-16T07:56:30.254Z,5.10
2019-04-16T07:58:33.687Z,5.93
2019-04-16T08:00:40.122Z,6.10
2019-04-16T08:02:42.129Z,5.47
2019-04-16T08:04:45.486Z,5.57
2019-04-16T08:06:48.865Z,5.20
2019-04-16T08:08:53.878Z,5.53
2019-04-16T08:10:57.167Z,6.10
2019-04-16T08:13:02.368Z,5.33
2019-04-16T08:15:13.923Z,5.30
2019-04-16T08:17:10.780Z,6.17
2019-04-16T08:19:15.160Z,5.37
2019-04-16T08:21:22.442Z,6.27
2019-04-16T08:23:30.204Z,6.90
2019-04-16T08:25:34.854Z,5.90
2019-04-16T08:27:38.326Z,5.50
2019-04-16T08:29:41.686Z,5.60
2019-04-16T08:31:46.682Z,6.80
2019-04-16T08:33:49.992Z,6.17
2019-04-16T08:35:53.356Z,5.07
2019-04-16T08:37:58.726Z,5.90
2019-04-16T08:40:02.126Z,6.60
2019-04-16T08:42:05.485Z,7.67
2019-04-16T08:44:10.375Z,6.40
2019-04-16T08:46:13.862Z,5.53
2019-04-16T08:48:18.736Z,6.47
2019-04-16T08:50:25.878Z,5.93
2019-04-16T08:52:27.380Z,5.63
2019-04-16T08:54:30.758Z,6.10
2019-04-16T08:56:34.157Z,5.20
2019-04-16T08:58:38.387Z,5.23
2019-04-16T09:00:46.545Z,6.20
2019-04-16T09:02:49.164Z,6.53
2019-04-16T09:04:52.486Z,6.17
2019-04-16T09:07:09.654Z,5.60
2019-04-16T09:09:13.165Z,5.93
2019-04-16T09:11:21.641Z,6.37
2019-04-16T09:13:23.165Z,6.20
2019-04-16T09:15:37.256Z,6.57
2019-04-16T09:17:42.270Z,6.43
2019-04-16T09:19:47.203Z,6.73
2019-04-16T09:21:51.048Z,6.40
2019-04-16T09:24:12.522Z,6.93
2019-04-16T09:26:22.594Z,6.67
2019-04-16T09:28:26.113Z,6.27
2019-04-16T09:30:33.294Z,6.60
2019-04-16T09:32:40.993Z,5.83
2019-04-16T09:35:10.125Z,6.77
2019-04-16T09:37:12.959Z,7.53
2019-04-16T09:39:27.030Z,5.40
2019-04-16T09:41:32.025Z,6.30
2019-04-16T09:43:49.105Z,7.07
2019-04-16T09:45:52.676Z,5.67
2019-04-16T09:47:56.036Z,6.53
2019-04-16T09:49:59.391Z,5.53
2019-04-16T09:52:03.983Z,7.43
2019-04-16T09:54:12.251Z,8.17
2019-04-16T09:56:30.011Z,7.07
2019-04-16T09:58:34.840Z,5.57
2019-04-16T10:00:40.027Z,6.63
2019-04-16T10:02:43.700Z,6.07
2019-04-16T10:04:47.047Z,6.10
2019-04-16T10:06:50.463Z,6.33
2019-04-16T10:08:56.573Z,6.20
2019-04-16T10:11:02.759Z,6.30
2019-04-16T10:13:03.927Z,6.83
2019-04-16T10:15:07.627Z,5.73
2019-04-16T10:17:10.993Z,6.20
2019-04-16T10:19:14.725Z,7.40
2019-04-16T10:21:19.678Z,7.20
2019-04-16T10:23:24.858Z,7.37
2019-04-16T10:25:28.232Z,6.83
2019-04-16T10:27:41.723Z,8.00
2019-04-16T10:29:45.097Z,7.07
2019-04-16T10:31:48.496Z,5.77
2019-04-16T10:33:51.862Z,6.53
2019-04-16T10:35:57.520Z,6.70
2019-04-16T10:38:01.992Z,6.33
2019-04-16T10:40:13.440Z,6.30
2019-04-16T10:42:18.420Z,6.10
2019-04-16T10:44:23.433Z,6.53
2019-04-16T10:46:46.807Z,7.13
2019-04-16T10:48:54.703Z,6.37
2019-04-16T10:50:59.801Z,7.00
2019-04-16T10:53:21.032Z,6.20
2019-04-16T10:55:44.257Z,6.53
2019-04-16T10:57:55.126Z,6.60
2019-04-16T11:00:12.317Z,5.73
2019-04-16T11:02:23.647Z,5.63
2019-04-16T11:04:34.369Z,6.80
2019-04-16T11:06:39.422Z,7.87
2019-04-16T11:08:42.811Z,7.40
2019-04-16T11:11:05.869Z,6.10
2019-04-16T11:13:10.861Z,5.70
2019-04-16T11:15:15.881Z,5.53
2019-04-16T11:17:20.949Z,5.20
2019-04-16T11:19:24.308Z,6.10
2019-04-16T11:21:27.671Z,5.47
2019-04-16T11:23:31.075Z,7.37
2019-04-16T11:25:35.062Z,6.37
2019-04-16T11:27:38.385Z,6.23
2019-04-16T11:29:42.599Z,8.03
2019-04-16T11:31:46.105Z,6.93
2019-04-16T11:33:49.487Z,6.50
2019-04-16T11:35:53.752Z,7.97
2019-04-16T11:37:57.193Z,6.80
2019-04-16T11:40:00.615Z,7.67
2019-04-16T11:42:03.951Z,7.73
2019-04-16T11:44:14.795Z,6.90
2019-04-16T11:46:12.451Z,7.43
2019-04-16T11:48:15.773Z,8.13
2019-04-16T11:50:19.161Z,8.07
2019-04-16T11:52:22.559Z,9.43
2019-04-16T11:54:26.361Z,8.13
2019-04-16T11:56:29.665Z,6.07
2019-04-16T11:58:44.050Z,6.73
2019-04-16T12:00:49.056Z,6.77
2019-04-16T12:03:10.528Z,7.47
2019-04-16T12:05:15.551Z,7.53
2019-04-16T12:07:20.558Z,7.00
2019-04-16T12:09:34.769Z,9.00
2019-04-16T12:11:42.447Z,8.73
2019-04-16T12:13:59.674Z,7.40
2019-04-16T12:16:24.312Z,7.30
2019-04-16T12:18:32.137Z,7.13
2019-04-16T12:20:53.382Z,7.27
2019-04-16T12:23:07.819Z,9.03
2019-04-16T12:25:29.879Z,6.63
2019-04-16T12:27:50.273Z,7.57
2019-04-16T12:30:11.341Z,6.87
2019-04-16T12:32:16.350Z,9.50
2019-04-16T12:34:24.297Z,7.03
2019-04-16T12:36:45.657Z,7.40
2019-04-16T12:38:56.278Z,7.40
2019-04-16T12:41:18.015Z,6.30
2019-04-16T12:43:34.785Z,6.33
2019-04-16T12:45:39.829Z,6.10
2019-04-16T12:47:44.891Z,9.07
2019-04-16T12:50:06.292Z,6.90
2019-04-16T12:52:15.898Z,7.97
2019-04-16T12:54:25.465Z,7.13
2019-04-16T12:56:47.068Z,7.13
2019-04-16T12:58:55.270Z,7.73
2019-04-16T13:01:03.069Z,8.63
2019-04-16T13:03:23.509Z,7.40
2019-04-16T13:05:45.294Z,6.77
2019-04-16T13:07:59.607Z,5.70
2019-04-16T13:10:07.670Z,5.37
2019-04-16T13:12:18.478Z,7.23
2019-04-16T13:14:39.764Z,6.43
2019-04-16T13:16:47.520Z,6.53
2019-04-16T13:18:55.302Z,10.10
2019-04-16T13:21:12.337Z,10.40
2019-04-16T13:23:33.867Z,9.53
2019-04-16T13:25:53.846Z,9.90
2019-04-16T13:27:57.230Z,7.40
2019-04-16T13:30:01.785Z,6.57
2019-04-16T13:32:05.535Z,5.80
2019-04-16T13:34:08.907Z,6.07
2019-04-16T13:36:12.188Z,7.20
2019-04-16T13:38:17.213Z,5.60
2019-04-16T13:40:21.482Z,6.10
2019-04-16T13:42:44.313Z,7.93
2019-04-16T13:44:52.378Z,8.50
2019-04-16T13:47:01.416Z,6.17
2019-04-16T13:49:24.197Z,5.97
2019-04-16T13:51:27.262Z,6.27
2019-04-16T13:53:41.029Z,5.87
2019-04-16T13:56:02.781Z,7.63
2019-04-16T13:58:07.766Z,6.43
2019-04-16T14:00:21.651Z,9.00
2019-04-16T14:02:26.987Z,6.33
2019-04-16T14:04:31.488Z,6.33
2019-04-16T14:06:35.253Z,5.80
2019-04-16T14:08:38.564Z,6.97
2019-04-16T14:10:43.284Z,6.23
2019-04-16T14:12:46.881Z,5.80
2019-04-16T14:14:50.340Z,5.23
2019-04-16T14:16:53.766Z,5.43
2019-04-16T14:18:57.121Z,5.70
2019-04-16T14:21:00.433Z,5.93
2019-04-16T14:23:05.046Z,5.77
2019-04-16T14:25:08.415Z,5.83
2019-04-16T14:27:14.002Z,5.90
2019-04-16T14:29:16.804Z,5.73
2019-04-16T14:31:21.045Z,6.03
2019-04-16T14:33:26.286Z,5.97
2019-04-16T14:35:33.450Z,5.50
2019-04-16T14:37:36.291Z,6.67
2019-04-16T14:39:43.957Z,5.73
2019-04-16T14:41:50.152Z,5.53
2019-04-16T14:43:53.971Z,6.70
2019-04-16T14:45:59.803Z,5.37
2019-04-16T14:48:07.636Z,5.27
2019-04-16T14:50:07.319Z,5.00
2019-04-16T14:52:10.725Z,4.80
2019-04-16T14:54:30.953Z,5.27
2019-04-16T14:56:38.820Z,4.87
2019-04-16T14:58:43.837Z,4.50
2019-04-16T15:00:57.793Z,4.67
2019-04-16T15:03:02.944Z,5.00
2019-04-16T15:05:08.833Z,4.50
2019-04-16T15:07:19.850Z,6.03
2019-04-16T15:09:41.152Z,4.87
2019-04-16T15:11:48.967Z,6.40
2019-04-16T15:13:56.799Z,5.50
2019-04-16T15:16:11.018Z,4.70
2019-04-16T15:18:08.466Z,4.73
2019-04-16T15:20:25.405Z,4.10
2019-04-16T15:22:36.973Z,4.60
2019-04-16T15:24:54.135Z,4.40
2019-04-16T15:27:17.020Z,4.00
2019-04-16T15:29:23.458Z,4.20
2019-04-16T15:31:45.195Z,3.37
2019-04-16T15:33:52.843Z,3.13
2019-04-16T15:36:00.485Z,3.40
2019-04-16T15:38:08.449Z,3.80
2019-04-16T15:40:13.397Z,2.97
2019-04-16T15:42:20.858Z,3.80
2019-04-16T15:44:43.456Z,3.73
2019-04-16T15:47:05.195Z,3.13
2019-04-16T15:49:25.497Z,3.33
2019-04-16T15:52:09.158Z,3.50
2019-04-16T15:54:24.013Z,3.60
2019-04-16T15:56:29.163Z,3.53
2019-04-16T15:58:34.117Z,3.20
2019-04-16T16:00:44.811Z,3.60
2019-04-16T16:02:55.837Z,3.43
2019-04-16T16:05:06.651Z,3.20
2019-04-16T16:07:10.098Z,3.20
2019-04-16T16:09:15.351Z,3.47
2019-04-16T16:11:20.281Z,3.10
2019-04-16T16:13:26.317Z,3.30
2019-04-16T16:15:28.755Z,3.13
2019-04-16T16:17:32.044Z,3.30
2019-04-16T16:19:35.391Z,2.90
2019-04-16T16:21:38.723Z,3.20
2019-04-16T16:23:42.076Z,2.90
2019-04-16T16:25:45.362Z,3.00
2019-04-16T16:27:48.687Z,2.93
2019-04-16T16:29:52.038Z,3.10
2019-04-16T16:31:55.333Z,3.03
2019-04-16T16:33:59.128Z,2.83
2019-04-16T16:36:02.690Z,3.00
2019-04-16T16:38:06.082Z,3.30
2019-04-16T16:40:12.053Z,3.40
2019-04-16T16:42:14.393Z,2.70
2019-04-16T16:44:17.687Z,2.67
2019-04-16T16:46:38.923Z,3.20
2019-04-16T16:48:42.346Z,3.00
2019-04-16T16:50:45.645Z,3.50
2019-04-16T16:52:53.704Z,3.40
2019-04-16T16:54:59.010Z,3.07
2019-04-16T16:57:10.050Z,3.07
2019-04-16T16:59:33.137Z,3.10
2019-04-16T17:01:40.829Z,2.77
2019-04-16T17:03:52.403Z,3.10
2019-04-16T17:05:54.095Z,3.07
2019-04-16T17:07:57.435Z,2.70
2019-04-16T17:10:20.230Z,3.07
2019-04-16T17:12:24.141Z,2.80
2019-04-16T17:14:27.492Z,2.60
2019-04-16T17:16:30.890Z,2.50
2019-04-16T17:18:34.263Z,2.77
2019-04-16T17:20:38.413Z,2.43
2019-04-16T17:22:42.653Z,2.40
2019-04-16T17:24:46.014Z,2.60
2019-04-16T17:26:50.048Z,2.13
2019-04-16T17:28:54.092Z,2.53
2019-04-16T17:30:57.450Z,2.73
2019-04-16T17:33:00.808Z,2.60
2019-04-16T17:35:07.610Z,2.50
2019-04-16T17:37:09.928Z,2.30
2019-04-16T17:39:14.932Z,2.13
2019-04-16T17:41:25.690Z,2.20
2019-04-16T17:43:59.792Z,2.33
2019-04-16T17:46:08.878Z,1.93
2019-04-16T17:48:30.340Z,2.00
2019-04-16T17:50:39.254Z,2.10
2019-04-16T17:52:41.972Z,1.97
2019-04-16T17:54:47.748Z,1.97
2019-04-16T17:57:09.190Z,2.10
2019-04-16T17:59:14.227Z,1.93
2019-04-16T18:01:31.540Z,1.90
2019-04-16T18:03:45.490Z,2.10
2019-04-16T18:06:06.774Z,2.20
2019-04-16T18:08:20.752Z,2.20
2019-04-16T18:10:26.876Z,2.37
2019-04-16T18:12:35.105Z,2.37
2019-04-16T18:14:58.549Z,2.80
2019-04-16T18:17:19.709Z,2.20
2019-04-16T18:19:24.920Z,2.40
2019-04-16T18:21:30.040Z,2.33
2019-04-16T18:23:37.961Z,2.23
2019-04-16T18:25:59.284Z,2.40
2019-04-16T18:28:06.874Z,2.00
2019-04-16T18:30:28.234Z,2.27
2019-04-16T18:32:42.571Z,2.20
2019-04-16T18:34:47.496Z,2.30
2019-04-16T18:37:08.984Z,2.10
2019-04-16T18:39:16.864Z,2.27
2019-04-16T18:41:21.878Z,2.03
2019-04-16T18:43:43.402Z,2.30
2019-04-16T18:45:52.399Z,2.10
2019-04-16T18:48:04.917Z,2.27
2019-04-16T18:50:08.346Z,2.37
2019-04-16T18:52:11.635Z,2.40
2019-04-16T18:54:15.720Z,2.00
2019-04-16T18:56:19.221Z,2.30
2019-04-16T18:58:22.714Z,2.40
2019-04-16T19:00:39.233Z,2.00
2019-04-16T19:02:42.810Z,2.40
2019-04-16T19:04:46.181Z,2.40
2019-04-16T19:06:49.532Z,2.23
2019-04-16T19:08:52.922Z,4.67
2019-04-16T19:10:56.209Z,4.03
2019-04-16T19:12:59.593Z,4.23
2019-04-16T19:15:03.277Z,3.00
2019-04-16T19:17:10.593Z,2.80
2019-04-16T19:19:22.083Z,2.60
2019-04-16T19:21:29.811Z,2.17
2019-04-16T19:23:37.567Z,2.00
2019-04-16T19:25:41.131Z,2.00
2019-04-16T19:27:44.491Z,2.00
2019-04-16T19:29:47.768Z,1.90
2019-04-16T19:31:54.908Z,2.00
2019-04-16T19:33:56.123Z,1.63
2019-04-16T19:35:59.398Z,1.60
2019-04-16T19:38:06.427Z,1.73
2019-04-16T19:40:07.711Z,1.57
2019-04-16T19:42:11.524Z,1.60
2019-04-16T19:44:14.987Z,1.60
2019-04-16T19:46:18.486Z,1.50
2019-04-16T19:48:34.661Z,1.60
2019-04-16T19:50:33.289Z,1.47
2019-04-16T19:52:32.139Z,1.30
2019-04-16T19:54:35.429Z,1.30
2019-04-16T19:56:38.829Z,1.40
2019-04-16T19:58:44.208Z,1.50
2019-04-16T20:00:47.361Z,1.37
2019-04-16T20:02:51.143Z,1.30
2019-04-16T20:04:54.565Z,1.67
2019-04-16T20:07:01.151Z,1.80
2019-04-16T20:09:05.089Z,1.80
2019-04-16T20:11:08.569Z,1.70
2019-04-16T20:13:11.853Z,1.70
2019-04-16T20:15:15.138Z,1.80
2019-04-16T20:17:18.438Z,2.20
2019-04-16T20:19:21.745Z,1.67
2019-04-16T20:21:25.107Z,1.33
2019-04-16T20:23:28.382Z,1.20
2019-04-16T20:25:31.763Z,1.23
2019-04-16T20:27:36.307Z,1.00
2019-04-16T20:29:40.130Z,1.00
2019-04-16T20:31:43.507Z,1.17
2019-04-16T20:33:46.799Z,1.30
2019-04-16T20:35:51.158Z,1.40
2019-04-16T20:37:55.154Z,1.37
2019-04-16T20:39:59.031Z,1.30
2019-04-16T20:42:02.316Z,1.50
2019-04-16T20:44:09.124Z,1.57
2019-04-16T20:46:10.720Z,1.40
2019-04-16T20:48:13.997Z,1.33
2019-04-16T20:50:20.538Z,1.30
2019-04-16T20:52:22.375Z,1.67
2019-04-16T20:54:25.787Z,1.50
2019-04-16T20:56:29.137Z,1.67
2019-04-16T20:58:32.479Z,1.30
2019-04-16T21:00:42.289Z,1.30
2019-04-16T21:02:42.480Z,1.43
2019-04-16T21:04:45.862Z,1.17
2019-04-16T21:06:49.147Z,1.23
2019-04-16T21:08:56.104Z,1.37
2019-04-16T21:10:59.434Z,1.50
2019-04-16T21:13:02.672Z,1.30
2019-04-16T21:15:05.951Z,1.10
2019-04-16T21:17:09.261Z,1.10
2019-04-16T21:19:22.951Z,0.90
2019-04-16T21:21:22.978Z,1.20
2019-04-16T21:23:23.063Z,1.20
2019-04-16T21:25:26.347Z,1.10
2019-04-16T21:27:30.811Z,1.10
2019-04-16T21:29:35.764Z,1.10
2019-04-16T21:31:43.078Z,1.20
2019-04-16T21:33:49.199Z,0.97
2019-04-16T21:36:05.108Z,1.10
2019-04-16T21:38:12.983Z,1.03
2019-04-16T21:40:16.574Z,1.00
2019-04-16T21:42:19.859Z,1.10
2019-04-16T21:44:23.139Z,1.00
2019-04-16T21:46:26.444Z,1.10
2019-04-16T21:48:29.735Z,1.20
2019-04-16T21:50:33.083Z,1.23
2019-04-16T21:52:36.470Z,1.00
2019-04-16T21:54:39.828Z,1.10
2019-04-16T21:56:43.145Z,1.20
2019-04-16T21:58:46.698Z,1.03
2019-04-16T22:00:53.152Z,0.80
2019-04-16T22:02:56.510Z,1.10
2019-04-16T22:04:59.891Z,0.90
2019-04-16T22:07:06.952Z,0.63
2019-04-16T22:09:08.595Z,1.00
2019-04-16T22:11:12.669Z,0.70
2019-04-16T22:13:19.114Z,0.70
2019-04-16T22:15:25.121Z,0.80
2019-04-16T22:17:26.135Z,1.00
2019-04-16T22:19:29.418Z,1.33
2019-04-16T22:21:32.705Z,2.27
2019-04-16T22:23:36.023Z,1.30
2019-04-16T22:25:39.373Z,1.87
2019-04-16T22:27:42.730Z,1.30
2019-04-16T22:29:47.648Z,1.17
2019-04-16T22:31:52.710Z,1.20
2019-04-16T22:33:56.438Z,0.83
2019-04-16T22:35:59.832Z,0.80
2019-04-16T22:38:03.126Z,0.90
2019-04-16T22:40:22.871Z,0.83
2019-04-16T22:42:29.807Z,0.70
2019-04-16T22:44:50.070Z,1.00
2019-04-16T22:46:58.215Z,0.90
2019-04-16T22:49:01.576Z,0.73
2019-04-16T22:51:09.345Z,0.70
2019-04-16T22:53:10.205Z,0.80
2019-04-16T22:55:13.566Z,0.60
2019-04-16T22:57:16.972Z,0.73
2019-04-16T22:59:20.378Z,0.67
2019-04-16T23:01:25.370Z,0.80
2019-04-16T23:03:28.659Z,0.90
2019-04-16T23:05:32.101Z,1.00
2019-04-16T23:07:36.538Z,0.90
2019-04-16T23:09:40.070Z,0.97
2019-04-16T23:11:43.517Z,0.90
2019-04-16T23:13:46.834Z,1.00
2019-04-16T23:15:50.163Z,1.00
2019-04-16T23:17:53.552Z,0.97
2019-04-16T23:19:57.169Z,0.97
2019-04-16T23:22:00.652Z,0.90
2019-04-16T23:24:03.971Z,1.00
2019-04-16T23:26:07.620Z,1.00
2019-04-16T23:28:11.737Z,1.07
2019-04-16T23:30:15.745Z,0.90
2019-04-16T23:32:20.158Z,0.87
2019-04-16T23:34:23.506Z,0.90
2019-04-16T23:36:26.833Z,0.97
2019-04-16T23:38:31.616Z,1.10
2019-04-16T23:40:35.129Z,1.10
2019-04-16T23:42:41.837Z,1.20
2019-04-16T23:45:05.055Z,0.97
2019-04-16T23:47:11.417Z,0.87
2019-04-16T23:49:33.181Z,0.90
2019-04-16T23:51:44.165Z,1.10
2019-04-16T23:53:51.799Z,1.10
2019-04-16T23:56:00.095Z,1.30
2019-04-16T23:58:05.086Z,1.20
